Time;durP1;ratioP1;P1;durP2;ratioP2;P2;SDS_P1;SDS_P2;PMS_P1;PMS_P2;Temp;Humidity;BMP_temperature;BMP_pressure;BME280_temperature;BME280_humidity;BME280_pressure;Samples;Min_cycle;Max_cycle;Signal;HPM_P1;HPM_P2
2021/07/15 05:53:59;;;;;;;6.07;4.53;;;;;;;;;;10530476;27;20404;-84
2021/07/15 05:59:00;;;;;;;3.58;2.90;;;;;;;;;;10498183;28;20402;-84
2021/07/15 06:04:01;;;;;;;3.08;2.00;;;;;;;;;;10498839;28;20024;-82
2021/07/15 06:09:03;;;;;;;6.07;2.92;;;;;;;;;;10501410;28;20365;-84
2021/07/15 06:14:04;;;;;;;5.68;4.28;;;;;;;;;;10497195;28;20024;-82
2021/07/15 06:19:06;;;;;;;3.85;3.53;;;;;;;;;;10497745;28;20086;-83
2021/07/15 06:24:09;;;;;;;3.10;2.30;;;;;;;;;;10496534;28;20051;-85
2021/07/15 06:29:10;;;;;;;2.63;2.42;;;;;;;;;;10496684;28;20025;-84
2021/07/15 06:34:11;;;;;;;3.00;2.70;;;;;;;;;;10495009;28;20128;-85
2021/07/15 06:39:12;;;;;;;1.73;1.45;;;;;;;;;;10492299;28;20056;-84
2021/07/15 06:44:13;;;;;;;5.28;2.72;;;;;;;;;;10527343;28;20032;-84
2021/07/15 06:49:14;;;;;;;4.53;3.70;;;;;;;;;;10521473;28;20029;-83
2021/07/15 06:54:17;;;;;;;3.40;2.30;;;;;;;;;;10498289;28;20048;-83
2021/07/15 06:59:18;;;;;;;5.32;4.60;;;;;;;;;;10497204;28;20097;-84
2021/07/15 07:04:19;;;;;;;3.95;1.70;;;;;;;;;;10474812;28;20032;-85
2021/07/15 07:09:21;;;;;;;2.63;1.45;;;;;;;;;;10473919;28;20025;-84
2021/07/15 07:14:22;;;;;;;3.42;1.80;;;;;;;;;;10469765;28;20032;-84
2021/07/15 07:19:23;;;;;;;3.28;1.70;;;;;;;;;;10477471;28;20031;-83
2021/07/15 07:24:25;;;;;;;2.05;1.83;;;;;;;;;;10473484;28;20033;-84
2021/07/15 07:29:29;;;;;;;3.40;2.55;;;;;;;;;;10475406;28;20554;-84
2021/07/15 07:34:33;;;;;;;7.10;1.98;;;;;;;;;;10474022;28;20055;-84
2021/07/15 07:39:34;;;;;;;3.75;1.98;;;;;;;;;;10473702;28;20498;-84
2021/07/15 07:44:35;;;;;;;3.58;2.00;;;;;;;;;;10471559;28;20021;-84
2021/07/15 07:49:36;;;;;;;2.95;2.08;;;;;;;;;;10471489;28;20426;-84
2021/07/15 07:54:37;;;;;;;3.60;1.88;;;;;;;;;;10471592;28;20029;-83
2021/07/15 08:00:00;;;;;;;4.75;2.72;;;;;;;;;;10471686;28;20047;-83
2021/07/15 08:05:40;;;;;;;5.05;2.72;;;;;;;;;;10469309;28;20025;-83
2021/07/15 08:16:50;;;;;;;5.97;3.63;;;;;;;;;;10432356;28;20049;-83
2021/07/15 08:22:36;;;;;;;5.40;3.15;;;;;;;;;;10383867;28;20034;-85
2021/07/15 08:33:26;;;;;;;6.43;1.98;;;;;;;;;;10379866;28;20482;-85
2021/07/15 08:38:50;;;;;;;4.25;3.35;;;;;;;;;;10433305;28;20463;-85
2021/07/15 08:44:00;;;;;;;4.30;2.80;;;;;;;;;;10467434;28;20108;-85
2021/07/15 08:49:26;;;;;;;3.30;2.55;;;;;;;;;;10466713;28;20090;-85
2021/07/15 09:00:25;;;;;;;4.53;2.78;;;;;;;;;;10463354;28;20029;-86
2021/07/15 09:06:04;;;;;;;2.72;2.33;;;;;;;;;;10453602;28;20037;-85
2021/07/15 09:11:46;;;;;;;4.50;3.20;;;;;;;;;;10452228;28;20028;-85
2021/07/15 09:16:53;;;;;;;5.15;2.25;;;;;;;;;;10481417;28;20041;-87
2021/07/15 09:22:06;;;;;;;4.03;2.45;;;;;;;;;;10472437;28;20047;-83
2021/07/15 09:27:22;;;;;;;3.25;2.45;;;;;;;;;;10467480;28;20033;-85
2021/07/15 09:32:23;;;;;;;5.00;3.30;;;;;;;;;;10462570;28;20088;-86
2021/07/15 09:37:35;;;;;;;3.67;3.10;;;;;;;;;;10462326;28;20025;-83
2021/07/15 09:42:38;;;;;;;4.97;3.78;;;;;;;;;;10481697;28;20036;-86
2021/07/15 11:35:25;;;;;;;14.38;11.80;;;;;;;;;;10493600;23;20057;-88
2021/07/15 11:40:53;;;;;;;10.80;8.73;;;;;;;;;;10429254;28;20502;-87
2021/07/15 11:46:09;;;;;;;11.43;10.18;;;;;;;;;;10414262;28;20113;-87
2021/07/15 11:51:33;;;;;;;11.40;10.05;;;;;;;;;;10413294;28;20068;-82
2021/07/15 11:57:05;;;;;;;13.48;11.60;;;;;;;;;;10421507;28;20041;-86
2021/07/15 12:02:08;;;;;;;12.65;9.63;;;;;;;;;;10451408;28;20048;-87
2021/07/15 12:07:15;;;;;;;10.18;8.57;;;;;;;;;;10442341;28;20149;-88
2021/07/15 13:20:16;;;;;;;14.20;12.40;;;;;;;;;;10430590;28;20499;-85
2021/07/15 13:32:00;;;;;;;15.55;13.82;;;;;;;;;;10181036;29;20060;-86
2021/07/15 13:37:03;;;;;;;16.55;14.65;;;;;;;;;;10149394;29;20526;-84
2021/07/15 13:42:14;;;;;;;14.50;13.10;;;;;;;;;;10251159;28;20042;-84
2021/07/15 13:53:35;;;;;;;14.68;13.18;;;;;;;;;;10232610;29;20028;-85
2021/07/15 13:59:23;;;;;;;13.30;11.90;;;;;;;;;;10148220;29;20372;-85
2021/07/15 14:04:26;;;;;;;12.93;11.52;;;;;;;;;;10148061;29;20173;-88
2021/07/15 14:09:32;;;;;;;11.13;9.95;;;;;;;;;;10162609;29;20063;-87
2021/07/15 14:14:34;;;;;;;11.45;10.25;;;;;;;;;;10249575;29;20035;-87
2021/07/15 14:19:47;;;;;;;14.38;11.27;;;;;;;;;;10262589;28;20165;-86
2021/07/15 14:25:00;;;;;;;11.90;10.80;;;;;;;;;;10412847;28;20034;-86
2021/07/15 14:53:36;;;;;;;12.23;11.05;;;;;;;;;;10273882;28;20043;-84
2021/07/15 14:58:44;;;;;;;13.43;12.00;;;;;;;;;;10270676;28;20047;-85
2021/07/15 15:03:54;;;;;;;15.05;11.60;;;;;;;;;;10307315;28;20052;-81
2021/07/15 15:08:55;;;;;;;;;;;;;;;;;;10421479;28;20038;-85
2021/07/15 15:13:56;;;;;;;13.45;12.07;;;;;;;;;;10430701;28;20003;-84
2021/07/15 15:19:04;;;;;;;13.68;12.23;;;;;;;;;;10460671;28;20083;-83
2021/07/15 15:24:38;;;;;;;13.73;12.43;;;;;;;;;;10460230;28;20029;-86
2021/07/15 15:29:44;;;;;;;15.75;14.00;;;;;;;;;;10418295;28;20033;-87
2021/07/15 15:34:46;;;;;;;13.43;12.07;;;;;;;;;;10407491;28;20038;-87
2021/07/15 15:39:47;;;;;;;11.52;10.43;;;;;;;;;;10418100;28;20046;-87
2021/07/15 15:44:48;;;;;;;9.68;8.68;;;;;;;;;;10416143;28;20065;-87
2021/07/15 15:49:49;;;;;;;10.10;8.95;;;;;;;;;;10447189;28;20033;-84
2021/07/15 15:54:50;;;;;;;10.40;9.38;;;;;;;;;;10435419;28;20053;-86
2021/07/15 15:59:51;;;;;;;9.05;8.13;;;;;;;;;;10416384;28;20042;-83
2021/07/15 16:04:52;;;;;;;9.10;7.90;;;;;;;;;;10410616;28;20436;-84
2021/07/15 16:09:53;;;;;;;7.85;7.05;;;;;;;;;;10414085;28;20037;-84
2021/07/15 16:14:54;;;;;;;7.25;6.55;;;;;;;;;;10414654;28;20112;-84
2021/07/15 16:19:55;;;;;;;7.35;6.68;;;;;;;;;;10412375;28;20037;-85
2021/07/15 16:25:05;;;;;;;7.85;6.85;;;;;;;;;;10417382;28;20041;-85
2021/07/15 16:30:09;;;;;;;8.77;7.88;;;;;;;;;;10412450;28;20037;-87
2021/07/15 16:35:10;;;;;;;8.60;7.70;;;;;;;;;;10407263;28;20117;-86
2021/07/15 16:40:12;;;;;;;9.38;8.48;;;;;;;;;;10404850;28;20096;-86
2021/07/15 16:45:21;;;;;;;10.48;9.48;;;;;;;;;;10420794;28;20033;-84
2021/07/15 16:50:22;;;;;;;10.68;9.68;;;;;;;;;;10407971;28;20399;-86
2021/07/15 16:55:23;;;;;;;10.57;9.48;;;;;;;;;;10403512;28;20053;-85
2021/07/15 17:00:24;;;;;;;10.43;9.30;;;;;;;;;;10410084;28;20033;-86
2021/07/15 17:05:25;;;;;;;8.95;7.97;;;;;;;;;;10408784;28;20037;-85
2021/07/15 17:10:26;;;;;;;9.40;8.50;;;;;;;;;;10423811;28;20037;-86
2021/07/15 17:15:27;;;;;;;12.23;9.48;;;;;;;;;;10403817;28;20041;-88
2021/07/15 17:20:28;;;;;;;8.73;7.63;;;;;;;;;;10402469;28;20041;-88
2021/07/15 17:25:29;;;;;;;9.82;8.82;;;;;;;;;;10402546;28;20044;-88
2021/07/15 17:30:30;;;;;;;10.80;9.80;;;;;;;;;;10418903;28;20044;-87
2021/07/15 17:35:31;;;;;;;9.10;8.20;;;;;;;;;;10420870;28;20037;-87
2021/07/15 17:40:32;;;;;;;12.65;11.10;;;;;;;;;;10419579;28;20128;-88
2021/07/15 17:45:34;;;;;;;10.57;8.95;;;;;;;;;;10402376;28;20037;-86
2021/07/15 17:50:35;;;;;;;15.45;13.50;;;;;;;;;;10402354;28;20501;-87
2021/07/15 17:55:39;;;;;;;13.80;11.43;;;;;;;;;;10401845;28;20489;-88
2021/07/15 18:00:40;;;;;;;15.45;11.30;;;;;;;;;;10402434;28;20040;-87
2021/07/15 18:05:42;;;;;;;16.02;12.38;;;;;;;;;;10402340;28;20040;-88
2021/07/15 18:10:43;;;;;;;15.55;11.32;;;;;;;;;;10403587;28;20160;-88
2021/07/15 18:15:44;;;;;;;14.07;11.70;;;;;;;;;;10422157;28;20033;-88
2021/07/15 18:20:45;;;;;;;18.38;13.82;;;;;;;;;;10403330;28;20122;-87
2021/07/15 18:25:47;;;;;;;18.05;13.75;;;;;;;;;;10403171;28;20037;-87
2021/07/15 18:30:48;;;;;;;15.63;12.18;;;;;;;;;;10436574;28;20025;-85
2021/07/15 18:35:49;;;;;;;14.63;11.45;;;;;;;;;;10461609;28;20028;-86
2021/07/15 18:40:50;;;;;;;19.33;15.50;;;;;;;;;;10459818;28;20053;-86
2021/07/15 18:45:51;;;;;;;18.20;14.55;;;;;;;;;;10406341;28;20128;-87
2021/07/15 18:50:52;;;;;;;18.98;15.48;;;;;;;;;;10402872;28;20041;-86
2021/07/15 18:55:53;;;;;;;14.68;12.18;;;;;;;;;;10402004;28;20403;-85
2021/07/15 19:00:55;;;;;;;29.73;19.80;;;;;;;;;;10405685;28;20145;-86
2021/07/15 19:05:56;;;;;;;27.63;18.35;;;;;;;;;;10408035;28;20233;-84
2021/07/15 19:10:57;;;;;;;26.90;18.33;;;;;;;;;;10406600;28;20140;-84
2021/07/15 19:15:58;;;;;;;24.30;17.52;;;;;;;;;;10406501;28;20048;-84
2021/07/15 19:21:01;;;;;;;30.08;19.58;;;;;;;;;;10406945;28;20033;-85
2021/07/15 19:26:02;;;;;;;24.30;17.15;;;;;;;;;;10406816;28;20033;-85
2021/07/15 19:31:05;;;;;;;22.02;16.05;;;;;;;;;;10424191;28;20033;-85
2021/07/15 19:36:07;;;;;;;23.63;14.38;;;;;;;;;;10408903;28;20389;-86
2021/07/15 19:41:08;;;;;;;18.73;13.93;;;;;;;;;;10412754;28;20033;-86
2021/07/15 19:46:09;;;;;;;19.10;13.25;;;;;;;;;;10412561;28;20048;-86
2021/07/15 19:51:10;;;;;;;16.52;12.57;;;;;;;;;;10414196;28;20076;-85
2021/07/15 19:56:11;;;;;;;18.88;12.25;;;;;;;;;;10408022;28;20037;-87
2021/07/15 20:01:12;;;;;;;16.50;11.05;;;;;;;;;;10440288;28;20037;-83
2021/07/15 20:06:13;;;;;;;14.48;11.02;;;;;;;;;;10422363;28;20049;-83
2021/07/15 20:11:14;;;;;;;15.60;10.57;;;;;;;;;;10424577;28;20034;-84
2021/07/15 20:16:15;;;;;;;14.77;11.20;;;;;;;;;;10417013;28;20034;-86
